Station: Portable Rfsnsw11  

  Atmospheric Gas Attenuation - ITU Rec 676-11   ----------------- dB/100km -----------------
Date Time Temp RH % AH g/m3 Dew Point Wind Direction Speed kph Gust kph Barometer mB Rainfall Since 9am 24GHz 47GHz 76GHz 122GHz 134GHz 241GHz
08/05 12:20 21.2 23 4.26 -0.3 7 11 1013.1 0 10.2 18.0 21.8 56.4 41.7 140.3
08/05 12:10 21 24 4.4 -0.4 7 11 1013.1 0 10.5 18.2 22.3 57.7 43.2 145.7
08/05 12:00 20.9 23 4.19 -0.7 7 11 1013.1 0 10.0 17.9 21.7 56.1 41.1 138.3
08/05 11:50 20.6 24 4.3 -0.3 6 7 1013.1 0 10.3 18.1 22.1 57.2 42.4 142.8
08/05 11:40 20.3 23 4.04 -1.2 6 9 1013.1 0 9.7 17.9 21.4 55.2 39.9 133.9
08/05 11:30 20.6 23 4.12 -1 7 11 1013.1 0 9.9 17.9 21.5 55.7 40.6 136.3
08/05 11:20 20.7 25 4.5 0 4 6 1013.1 0 10.7 18.4 22.7 58.7 44.4 149.8
08/05 11:10 20.3 24 4.22 -0.6 4 7 1013.1 0 10.1 18.1 21.9 56.7 41.8 140.4
08/05 11:00 19.7 26 4.41 -0.2 4 7 1013.1 0 10.5 18.4 22.7 58.7 44.0 148.3
08/05 10:50 19.6 26 4.39 -0.2 6 7 1013.1 0 10.5 18.4 22.6 58.6 43.9 147.7
08/05 10:40 18.9 29 4.7 0.4 6 7 1013.1 0 11.2 19.0 23.8 61.7 47.5 160.5
08/05 10:30 18.8 31 4.99 1.5 6 7 1013.1 0 11.8 19.4 24.8 64.3 50.7 171.6
08/05 10:20 18.6 32 5.09 1.8 4 7 1013.1 0 12.0 19.5 25.1 65.3 51.9 175.8
08/05 10:10 17.9 32 4.89 1.1 4 6 1013.1 0 11.6 19.4 24.7 64.1 50.1 169.6
08/05 10:00 17.3 37 5.45 2.5 6 7 1013.1 0 12.8 20.3 26.7 69.6 56.7 192.6
08/05 09:50 17 41 5.93 3.6 6 6 1013.1 0 13.8 21.0 28.5 74.3 62.3 212.4
08/05 09:40 16.3 45 6.24 4.5 4 7 1013.1 0 14.5 21.6 29.8 77.8 66.5 226.8
08/05 09:30 15.7 44 5.89 3.6 6 7 1013.1 0 13.8 21.3 28.8 75.1 62.9 214.1
08/05 09:10 14.3 56 6.88 5.6 6 7 1013.1 0 15.9 23.1 32.9 86.1 75.9 259.7
08/05 09:00 14.1 57 6.92 5.7 4 6 1013.1 0 16.0 23.2 33.1 86.7 76.6 262.1
08/05 08:50 13.4 59 6.86 5.6 4 6 1013.1 0 15.9 23.3 33.2 86.8 76.5 261.8
08/05 08:40 12.6 61 6.75 5.4 2 4 1013.1 0 15.7 23.3 33.1 86.6 75.9 259.6
08/05 08:30 11.9 66 6.99 5.7 2 4 1013.1 0 16.2 23.9 34.3 89.8 79.7 272.6
08/05 08:20 10.9 68 6.77 5.3 4 4 1013.1 0 15.8 23.8 33.9 88.7 77.8 266.1
08/05 08:10 10.1 76 7.19 6.1 2 4 1013.1 0 16.7 24.7 35.9 94.0 84.1 288.0
08/05 08:00 8.7 84 7.27 6.2 2 4 1013.1 0 17.0 25.2 36.9 96.6 86.7 297.0
08/05 07:50 7.5 93 7.45 6.4 2 2 1013.1 0 17.4 25.8 38.2 100.1 90.6 310.3
08/05 07:40 6.6 96 7.25 6 0 2 1013.1 0 17.0 25.8 37.8 99.0 88.9 304.1
08/05 07:30 5.1 97 6.64 4.6 0 2 1013.1 0 15.8 25.2 35.9 94.0 82.1 280.2
08/05 07:20 4 97 6.17 3.6 2 2 1013.1 0 14.8 24.7 34.4 90.1 76.8 261.4
08/05 07:10 3.4 97 5.93 2.9 2 4 1013.1 0 14.3 24.4 33.7 88.1 74.1 251.8
08/05 07:00 2.7 97 5.66 2.3 4 4 1013.1 0 13.7 24.2 32.9 85.9 71.0 241.0
08/05 06:50 2.2 96 5.41 1.7 2 4 1013.1 0 13.2 23.9 32.0 83.7 68.1 230.6
08/05 06:40 2.2 97 5.47 1.8 2 4 1013.1 0 13.3 24.0 32.3 84.3 68.9 233.4
08/05 06:30 2.1 97 5.43 1.7 2 4 1013.1 0 13.3 24.0 32.2 84.0 68.4 231.8
08/05 06:20 2.3 96 5.45 1.8 2 4 1013.1 0 13.3 23.9 32.2 84.0 68.5 232.2
08/05 06:10 2.5 96 5.52 2 2 4 1013.1 0 13.4 24.0 32.4 84.5 69.3 234.9
08/05 06:00 2.3 96 5.45 1.8 2 2 1013.1 0 13.3 23.9 32.2 84.0 68.5 232.2
08/05 05:50 2.4 96 5.49 1.9 2 2 1013.1 0 13.4 24.0 32.3 84.3 69.0 233.8
08/05 05:40 2.7 96 5.6 2.2 2 4 1013.1 0 13.6 24.1 32.6 85.2 70.2 238.2
08/05 05:30 2.8 96 5.64 2.2 2 2 1013.1 0 13.7 24.1 32.8 85.5 70.7 239.8
08/05 05:20 2.8 96 5.64 2.2 2 4 1013.1 0 13.7 24.1 32.8 85.5 70.7 239.8
08/05 05:10 2.9 96 5.67 2.3 2 2 1013.1 0 13.7 24.1 32.8 85.8 71.0 240.9
08/05 05:00 3.1 96 5.75 2.5 2 4 1013.1 0 13.9 24.2 33.1 86.4 71.9 244.1
08/05 04:50 3.1 94 5.63 2.3 4 4 1013.1 0 13.7 24.0 32.6 85.1 70.2 238.4
08/05 04:40 3.4 96 5.87 2.8 2 4 1013.1 0 14.2 24.3 33.5 87.4 73.2 248.9
08/05 04:30 3.6 97 6.01 3.1 4 7 1013.1 0 14.5 24.5 34.0 88.8 75.0 255.0
08/05 04:20 3.3 96 5.83 2.8 4 4 1013.1 0 14.1 24.3 33.3 87.1 72.8 247.3
08/05 04:10 3.3 96 5.83 2.7 4 6 1013.1 0 14.1 24.3 33.3 87.1 72.8 247.3
08/05 04:00 3.3 96 5.83 2.8 4 6 1013.1 0 14.1 24.3 33.3 87.1 72.8 247.3
08/05 03:50 3.3 96 5.83 2.8 4 6 1013.1 0 14.1 24.3 33.3 87.1 72.8 247.3
08/05 03:40 3.3 96 5.83 2.7 4 4 1013.1 0 14.1 24.3 33.3 87.1 72.8 247.3
08/05 03:30 3.5 96 5.91 2.9 2 4 1013.1 0 14.2 24.4 33.6 87.8 73.7 250.5
08/05 03:20 3.6 96 5.95 3 2 4 1013.1 0 14.3 24.4 33.7 88.1 74.1 252.1
08/05 03:10 3.6 96 5.95 3 2 6 1013.1 0 14.3 24.4 33.7 88.1 74.1 252.1
08/05 03:00 3.7 96 5.99 3.1 4 6 1013.1 0 14.4 24.5 33.8 88.4 74.6 253.7
08/05 02:50 4.1 96 6.15 3.5 4 6 1013.1 0 14.7 24.6 34.3 89.7 76.4 260.1
08/05 02:40 4.2 95 6.13 3.5 2 4 1013.1 0 14.7 24.6 34.2 89.4 76.0 258.8
08/05 02:30 4.4 95 6.21 3.7 4 6 1013.1 0 14.9 24.6 34.4 90.1 76.9 261.9
08/05 02:20 4.5 95 6.25 3.8 4 6 1013.1 0 14.9 24.7 34.6 90.4 77.4 263.5
08/05 02:10 4.7 95 6.33 3.9 2 4 1013.1 0 15.1 24.7 34.8 91.0 78.3 266.7
08/05 02:00 5 95 6.46 4.3 4 6 1013.1 0 15.4 24.9 35.2 92.1 79.7 271.9
08/05 01:50 5.1 94 6.43 4.2 2 2 1013.1 0 15.3 24.8 35.0 91.7 79.2 270.1
08/05 01:40 5.5 94 6.61 4.6 2 4 1013.1 0 15.7 25.0 35.6 93.2 81.3 277.3
08/05 01:30 5.7 94 6.69 4.8 2 4 1013.1 0 15.8 25.1 35.9 93.8 82.1 280.5
08/05 01:20 5.9 93 6.71 4.9 4 4 1013.1 0 15.9 25.0 35.8 93.8 82.2 280.7
08/05 01:10 6.7 92 6.99 5.5 2 4 1013.1 0 16.5 25.3 36.6 96.0 85.2 291.2
08/05 01:00 7.2 95 7.46 6.4 2 4 1013.1 0 17.4 25.9 38.4 100.6 91.1 311.9
08/05 00:50 7.2 93 7.3 6.1 2 2 1013.1 0 17.1 25.7 37.7 98.8 88.9 304.2
08/05 00:40 7.5 92 7.37 6.3 2 6 1013.1 0 17.2 25.7 37.8 99.2 89.5 306.4
08/05 00:30 8.1 91 7.58 6.8 4 6 1013.1 0 17.7 25.9 38.4 100.8 91.7 314.1
08/05 00:10 8.8 90 7.84 7.3 2 4 1013.1 0 18.2 26.1 39.2 102.7 94.4 323.8
08/05 00:00 9.3 90 8.09 7.7 2 2 1013.1 0 18.7 26.4 40.0 104.9 97.2 333.7
07/05 23:50 9.6 87 7.97 7.5 2 2 1013.1 0 18.4 26.1 39.3 103.1 95.2 326.7
07/05 23:40 10.2 84 8 7.7 2 4 1013.1 0 18.5 26.0 39.1 102.7 94.9 325.6
07/05 23:30 10.2 83 7.9 7.4 2 4 1013.1 0 18.3 25.8 38.7 101.6 93.5 320.8
07/05 23:20 10.3 81 7.76 7.2 2 4 1013.1 0 18.0 25.5 38.1 99.9 91.5 313.8
07/05 23:10 10.9 82 8.16 7.9 4 4 1013.1 0 18.8 26.0 39.5 103.5 96.2 330.2
07/05 23:00 11.1 79 7.96 7.7 4 6 1013.1 0 18.3 25.6 38.5 101.1 93.2 320.0
07/05 22:50 11.2 82 8.31 8.2 4 6 1013.1 0 19.1 26.2 39.9 104.8 97.8 336.1
07/05 22:40 11.4 73 7.49 6.7 4 6 1013.1 0 17.3 24.8 36.5 95.6 86.6 297.0
07/05 22:30 11.3 76 7.75 7.2 4 6 1013.1 0 17.9 25.2 37.6 98.5 90.2 309.4
07/05 22:20 11.4 79 8.11 8 4 6 1013.1 0 18.7 25.8 39.0 102.3 94.9 325.8
07/05 22:10 11.4 80 8.21 8.1 4 6 1013.1 0 18.9 26.0 39.4 103.4 96.2 330.5
07/05 22:00 11.7 80 8.37 8.4 4 6 1013.1 0 19.2 26.1 39.9 104.7 98.0 336.8
07/05 21:50 12.4 80 8.74 9 4 4 1013.1 0 20.0 26.5 41.1 107.8 102.1 351.2
07/05 21:40 13.6 72 8.47 8.6 4 6 1013.1 0 19.3 25.7 39.4 103.3 96.9 333.3
07/05 21:30 13.8 66 7.86 7.7 4 4 1013.1 0 18.0 24.7 36.9 96.6 88.7 304.7
07/05 21:20 14.2 62 7.57 7.1 2 4 1013.1 0 17.4 24.1 35.6 93.1 84.6 290.2
07/05 21:10 14.7 54 6.8 5.6 4 6 1013.1 0 15.7 22.8 32.5 84.8 74.5 255.0
07/05 21:00 14.7 55 6.92 5.9 4 6 1013.1 0 16.0 23.0 32.9 86.0 76.0 260.2
07/05 20:50 14.3 58 7.13 6.3 4 7 1013.1 0 16.4 23.4 33.8 88.6 79.0 270.6
07/05 20:40 14 58 7 5.9 2 7 1013.1 0 16.2 23.3 33.5 87.6 77.7 265.9
07/05 20:30 14.1 66 8.01 7.8 2 4 1013.1 0 18.3 24.9 37.3 97.8 90.3 310.3
07/05 20:20 12.7 62 6.9 5.6 4 7 1013.1 0 16.0 23.5 33.6 88.0 77.7 265.9
07/05 20:10 11.3 82 8.37 8.3 2 4 1013.1 0 19.2 26.2 40.1 105.3 98.5 338.5
07/05 20:00 10.7 87 8.55 8.7 2 4 1013.1 0 19.6 26.7 41.2 108.1 101.7 349.7
07/05 19:50 10.8 87 8.6 8.7 4 4 1013.1 0 19.7 26.8 41.3 108.5 102.3 351.7
07/05 19:40 11.3 84 8.57 8.8 4 6 1013.1 0 19.6 26.6 40.9 107.5 101.2 348.0
07/05 19:30 11.4 84 8.62 8.8 4 6 1013.1 0 19.7 26.6 41.1 107.9 101.8 350.0

Last Refresh: 08-May-2026 12:10:18

Bureau of Meteorology